createdAt,value
2017-12-25T00:01:52.965Z,12.00
2017-12-25T00:04:20.405Z,12.10
2017-12-25T00:06:48.624Z,12.00
2017-12-25T00:09:16.082Z,11.90
2017-12-25T00:11:43.533Z,12.10
2017-12-25T00:14:11.752Z,12.20
2017-12-25T00:16:39.224Z,12.10
2017-12-25T00:19:07.447Z,12.10
2017-12-25T00:21:34.906Z,12.10
2017-12-25T00:24:03.137Z,12.20
2017-12-25T00:26:30.593Z,12.10
2017-12-25T00:28:58.798Z,12.10
2017-12-25T00:31:27.030Z,12.00
2017-12-25T00:33:54.501Z,12.00
2017-12-25T00:36:21.969Z,12.10
2017-12-25T00:38:49.458Z,12.20
2017-12-25T00:41:16.917Z,12.10
2017-12-25T00:43:45.142Z,12.10
2017-12-25T00:46:13.681Z,12.10
2017-12-25T00:48:41.134Z,12.10
2017-12-25T00:51:08.598Z,12.10
2017-12-25T00:53:36.052Z,12.10
2017-12-25T00:56:03.507Z,12.20
2017-12-25T00:58:31.725Z,12.10
2017-12-25T01:00:59.186Z,12.00
2017-12-25T01:03:26.634Z,12.10
2017-12-25T01:05:54.083Z,12.20
2017-12-25T01:08:21.538Z,12.20
2017-12-25T01:10:49.746Z,12.20
2017-12-25T01:13:17.200Z,12.20
2017-12-25T01:15:44.641Z,12.10
2017-12-25T01:18:12.125Z,12.10
2017-12-25T01:20:39.577Z,12.10
2017-12-25T01:23:07.029Z,12.20
2017-12-25T01:25:34.499Z,12.10
2017-12-25T01:28:01.952Z,12.20
2017-12-25T01:30:29.409Z,12.10
2017-12-25T01:32:56.865Z,12.10
2017-12-25T01:35:24.330Z,12.00
2017-12-25T01:37:51.785Z,12.00
2017-12-25T01:40:19.257Z,12.00
2017-12-25T01:42:46.705Z,12.00
2017-12-25T01:45:14.166Z,12.10
2017-12-25T01:47:41.637Z,12.20
2017-12-25T01:50:09.869Z,12.00
2017-12-25T01:52:37.318Z,12.00
2017-12-25T01:55:05.601Z,12.00
2017-12-25T01:57:38.852Z,12.00
2017-12-25T02:00:09.111Z,12.00
2017-12-25T02:02:36.576Z,12.00
2017-12-25T02:05:09.573Z,12.00
2017-12-25T02:07:48.673Z,11.90
2017-12-25T02:10:16.130Z,11.90
2017-12-25T02:12:43.608Z,12.10
2017-12-25T02:15:11.065Z,12.10
2017-12-25T02:17:38.517Z,12.20
2017-12-25T02:20:05.969Z,12.20
2017-12-25T02:22:33.446Z,12.20
2017-12-25T02:25:00.890Z,12.10
2017-12-25T02:27:28.354Z,12.10
2017-12-25T02:29:55.811Z,12.00
2017-12-25T02:32:23.267Z,11.90
2017-12-25T02:34:50.726Z,11.90
2017-12-25T02:37:18.186Z,12.00
2017-12-25T02:39:45.654Z,12.10
2017-12-25T02:42:13.102Z,12.20
2017-12-25T02:44:40.550Z,12.10
2017-12-25T02:47:08.022Z,12.10
2017-12-25T02:49:35.474Z,12.00
2017-12-25T02:52:02.928Z,11.90
2017-12-25T02:54:30.411Z,12.00
2017-12-25T02:56:57.840Z,11.90
2017-12-25T02:59:25.292Z,11.80
2017-12-25T03:01:52.761Z,11.90
2017-12-25T03:04:20.221Z,11.90
2017-12-25T03:06:47.682Z,12.00
2017-12-25T03:09:15.132Z,12.00
2017-12-25T03:11:43.349Z,12.00
2017-12-25T03:14:11.573Z,11.90
2017-12-25T03:16:39.025Z,11.90
2017-12-25T03:19:06.488Z,12.00
2017-12-25T03:21:33.945Z,12.00
2017-12-25T03:24:02.161Z,12.00
2017-12-25T03:26:30.374Z,12.00
2017-12-25T03:28:57.829Z,12.00
2017-12-25T03:31:25.290Z,12.00
2017-12-25T03:33:52.754Z,12.10
2017-12-25T03:36:20.201Z,12.10
2017-12-25T03:38:47.658Z,12.20
2017-12-25T03:41:15.117Z,12.10
2017-12-25T03:43:42.593Z,12.10
2017-12-25T03:46:10.048Z,12.00
2017-12-25T03:48:37.505Z,12.00
2017-12-25T03:51:04.953Z,12.10
2017-12-25T03:53:32.414Z,12.10
2017-12-25T03:55:59.860Z,12.10
2017-12-25T03:58:27.319Z,12.00
2017-12-25T04:00:54.778Z,12.00
2017-12-25T04:03:22.275Z,12.00
2017-12-25T04:05:49.681Z,11.80
2017-12-25T04:08:17.145Z,11.70
2017-12-25T04:10:44.606Z,11.70
2017-12-25T04:13:12.081Z,11.80
2017-12-25T04:15:39.542Z,11.80
2017-12-25T04:18:07.003Z,11.80
2017-12-25T04:20:34.463Z,11.90
2017-12-25T04:23:01.919Z,11.90
2017-12-25T04:25:29.377Z,12.00
2017-12-25T04:27:56.830Z,11.90
2017-12-25T04:30:24.285Z,11.90
2017-12-25T04:32:51.748Z,12.00
2017-12-25T04:35:19.211Z,12.00
2017-12-25T04:37:46.669Z,12.00
2017-12-25T04:40:14.145Z,12.00
2017-12-25T04:42:41.593Z,12.10
2017-12-25T04:45:09.053Z,12.00
2017-12-25T04:47:36.510Z,12.00
2017-12-25T04:50:03.984Z,12.00
2017-12-25T04:52:31.449Z,11.90
2017-12-25T04:54:59.677Z,11.80
2017-12-25T04:57:27.125Z,11.80
2017-12-25T04:59:54.584Z,11.90
2017-12-25T05:02:22.041Z,11.80
2017-12-25T05:04:50.269Z,11.80
2017-12-25T05:07:18.492Z,11.80
2017-12-25T05:09:45.979Z,11.80
2017-12-25T05:12:14.948Z,11.90
2017-12-25T05:14:42.397Z,11.90
2017-12-25T05:17:09.874Z,11.90
2017-12-25T05:19:37.330Z,11.90
2017-12-25T05:22:04.788Z,11.80
2017-12-25T05:24:32.245Z,11.80
2017-12-25T05:26:59.718Z,11.80
2017-12-25T05:29:27.175Z,11.80
2017-12-25T05:31:54.630Z,11.80
2017-12-25T05:34:22.077Z,11.80
2017-12-25T05:36:49.538Z,11.80
2017-12-25T05:39:17.005Z,11.80
2017-12-25T05:41:44.471Z,11.80
2017-12-25T05:44:12.702Z,12.00
2017-12-25T05:46:40.171Z,12.00
2017-12-25T05:49:08.392Z,11.90
2017-12-25T05:51:36.615Z,11.90
2017-12-25T05:54:04.069Z,11.90
2017-12-25T05:56:31.537Z,11.90
2017-12-25T05:58:58.994Z,12.00
2017-12-25T06:01:26.454Z,11.90
2017-12-25T06:03:53.907Z,12.00
2017-12-25T06:06:21.381Z,12.00
2017-12-25T06:08:48.842Z,11.90
2017-12-25T06:11:16.313Z,11.90
2017-12-25T06:13:44.537Z,11.90
2017-12-25T06:16:11.997Z,11.90
2017-12-25T06:18:39.467Z,11.90
2017-12-25T06:21:06.937Z,11.80
2017-12-25T06:23:34.401Z,11.80
2017-12-25T06:26:01.862Z,11.80
2017-12-25T06:28:29.329Z,11.80
2017-12-25T06:30:56.791Z,11.80
2017-12-25T06:33:24.260Z,11.90
2017-12-25T06:35:52.480Z,12.00
2017-12-25T06:38:19.939Z,11.90
2017-12-25T06:40:47.390Z,11.90
2017-12-25T06:43:14.862Z,12.00
2017-12-25T06:45:42.327Z,12.00
2017-12-25T06:48:09.802Z,11.90
2017-12-25T06:50:37.269Z,12.00
2017-12-25T06:53:04.726Z,12.00
2017-12-25T06:55:32.942Z,12.00
2017-12-25T06:58:00.402Z,11.90
2017-12-25T07:00:27.896Z,12.00
2017-12-25T07:02:55.329Z,11.90
2017-12-25T07:05:22.806Z,11.90
2017-12-25T07:07:50.262Z,11.80
2017-12-25T07:10:18.488Z,11.90
2017-12-25T07:12:45.933Z,11.90
2017-12-25T07:15:14.167Z,12.00
2017-12-25T07:17:41.622Z,12.00
2017-12-25T07:20:09.081Z,11.90
2017-12-25T07:22:36.548Z,12.00
2017-12-25T07:25:03.997Z,12.10
2017-12-25T07:27:31.453Z,12.20
2017-12-25T07:29:58.917Z,12.10
2017-12-25T07:32:26.400Z,12.10
2017-12-25T07:34:54.633Z,12.00
2017-12-25T07:37:22.073Z,12.00
2017-12-25T07:39:49.534Z,12.10
2017-12-25T07:42:16.993Z,12.00
2017-12-25T07:44:44.472Z,12.10
2017-12-25T07:47:11.936Z,12.10
2017-12-25T07:49:40.161Z,12.10
2017-12-25T07:52:07.610Z,12.10
2017-12-25T07:54:35.085Z,12.10
2017-12-25T07:57:03.286Z,12.10
2017-12-25T07:59:30.728Z,12.10
2017-12-25T08:01:58.187Z,12.00
2017-12-25T08:04:25.648Z,11.90
2017-12-25T08:06:53.124Z,11.80
2017-12-25T08:09:20.566Z,11.90
2017-12-25T08:11:48.030Z,12.00
2017-12-25T08:14:15.488Z,11.90
2017-12-25T08:16:42.963Z,12.10
2017-12-25T08:19:11.913Z,12.20
2017-12-25T08:21:39.380Z,12.20
2017-12-25T08:24:06.842Z,12.20
2017-12-25T08:26:34.294Z,12.20
2017-12-25T08:29:01.750Z,12.10
2017-12-25T08:31:29.210Z,11.90
2017-12-25T08:33:56.656Z,11.80
2017-12-25T08:36:24.126Z,11.90
2017-12-25T08:38:51.581Z,12.00
2017-12-25T08:41:19.049Z,12.10
2017-12-25T08:43:46.494Z,12.30
2017-12-25T08:46:13.957Z,12.10
2017-12-25T08:48:41.405Z,12.10
2017-12-25T08:51:08.866Z,12.10
2017-12-25T08:53:36.326Z,12.10
2017-12-25T08:56:03.781Z,12.10
2017-12-25T08:58:31.238Z,12.00
2017-12-25T09:00:58.698Z,12.10
2017-12-25T09:03:26.158Z,12.20
2017-12-25T09:05:53.608Z,12.10
2017-12-25T09:08:21.065Z,12.20
2017-12-25T09:10:48.526Z,12.10
2017-12-25T09:13:15.986Z,12.10
2017-12-25T09:15:43.442Z,12.20
2017-12-25T09:18:10.898Z,12.20
2017-12-25T09:20:38.350Z,12.50
2017-12-25T09:23:05.814Z,12.70
2017-12-25T09:25:33.266Z,12.90
2017-12-25T09:28:00.725Z,13.10
2017-12-25T09:30:28.185Z,13.30
2017-12-25T09:32:55.636Z,13.40
2017-12-25T09:35:23.075Z,13.50
2017-12-25T09:37:50.527Z,13.50
2017-12-25T09:40:17.993Z,13.30
2017-12-25T09:42:45.437Z,13.20
2017-12-25T09:45:12.893Z,13.20
2017-12-25T09:47:41.101Z,13.30
2017-12-25T09:50:08.567Z,13.30
2017-12-25T09:52:36.014Z,13.40
2017-12-25T09:55:03.469Z,13.50
2017-12-25T09:57:30.937Z,13.60
2017-12-25T09:59:58.398Z,13.70
2017-12-25T10:02:25.842Z,13.70
2017-12-25T10:04:53.301Z,13.70
2017-12-25T10:07:20.749Z,13.60
2017-12-25T10:09:48.222Z,13.60
2017-12-25T10:12:15.671Z,13.80
2017-12-25T10:14:43.130Z,13.80
2017-12-25T10:17:10.594Z,13.80
2017-12-25T10:19:38.044Z,13.80
2017-12-25T10:22:05.487Z,13.80
2017-12-25T10:24:33.005Z,13.80
2017-12-25T10:27:00.450Z,13.80
2017-12-25T10:29:27.921Z,13.80
2017-12-25T10:31:55.365Z,13.70
2017-12-25T10:34:22.821Z,13.70
2017-12-25T10:36:50.275Z,13.80
2017-12-25T10:39:17.730Z,13.90
2017-12-25T10:41:45.254Z,14.00
2017-12-25T10:44:12.653Z,14.00
2017-12-25T10:46:40.114Z,14.10
2017-12-25T10:49:07.566Z,14.10
2017-12-25T10:51:35.040Z,14.00
2017-12-25T10:54:02.506Z,13.80
2017-12-25T10:56:30.729Z,13.90
2017-12-25T10:58:58.174Z,13.90
2017-12-25T11:01:25.874Z,13.90
2017-12-25T11:03:53.322Z,13.90
2017-12-25T11:06:20.797Z,14.10
2017-12-25T11:08:49.745Z,14.30
2017-12-25T11:11:18.076Z,14.30
2017-12-25T11:13:45.533Z,14.10
2017-12-25T11:16:12.994Z,14.10
2017-12-25T11:18:40.444Z,14.00
2017-12-25T11:21:07.905Z,13.90
2017-12-25T11:23:35.365Z,13.90
2017-12-25T11:26:02.822Z,13.90
2017-12-25T11:28:31.057Z,13.70
2017-12-25T11:30:58.506Z,13.70
2017-12-25T11:33:25.970Z,13.70
2017-12-25T11:35:53.519Z,13.70
2017-12-25T11:38:20.979Z,13.70
2017-12-25T11:40:48.441Z,13.70
2017-12-25T11:43:15.893Z,13.70
2017-12-25T11:45:43.350Z,13.70
2017-12-25T11:48:10.810Z,13.70
2017-12-25T11:50:38.262Z,13.80
2017-12-25T11:53:05.727Z,13.90
2017-12-25T11:55:33.178Z,14.00
2017-12-25T11:58:00.629Z,14.00
2017-12-25T12:00:28.084Z,13.90
2017-12-25T12:02:55.558Z,13.90
2017-12-25T12:05:23.001Z,14.10
2017-12-25T12:07:50.473Z,14.10
2017-12-25T12:10:17.917Z,14.10
2017-12-25T12:12:45.377Z,14.10
2017-12-25T12:15:12.838Z,14.20
2017-12-25T12:17:40.285Z,14.50
2017-12-25T12:20:07.739Z,14.50
2017-12-25T12:22:35.210Z,14.40
2017-12-25T12:25:02.670Z,14.30
2017-12-25T12:27:30.121Z,14.20
2017-12-25T12:29:57.578Z,14.30
2017-12-25T12:32:25.030Z,14.40
2017-12-25T12:34:52.502Z,14.50
2017-12-25T12:37:19.965Z,14.40
2017-12-25T12:39:47.453Z,14.40
2017-12-25T12:42:14.912Z,14.20
2017-12-25T12:44:42.376Z,14.20
2017-12-25T12:47:09.832Z,14.20
2017-12-25T12:49:37.277Z,14.40
2017-12-25T12:52:04.721Z,14.40
2017-12-25T12:54:32.936Z,14.40
2017-12-25T12:57:01.162Z,14.30
2017-12-25T12:59:37.634Z,14.30
2017-12-25T13:02:05.089Z,14.30
2017-12-25T13:04:32.541Z,14.30
2017-12-25T13:06:59.989Z,14.10
2017-12-25T13:09:27.445Z,14.00
2017-12-25T13:11:54.945Z,14.20
2017-12-25T13:14:23.253Z,14.10
2017-12-25T13:16:51.485Z,14.00
2017-12-25T13:19:19.778Z,14.20
2017-12-25T13:21:47.254Z,14.20
2017-12-25T13:24:15.522Z,14.30
2017-12-25T13:26:43.750Z,14.30
2017-12-25T13:29:11.209Z,14.20
2017-12-25T13:31:38.681Z,14.10
2017-12-25T13:34:06.138Z,13.90
2017-12-25T13:36:33.595Z,13.90
2017-12-25T13:39:01.046Z,13.80
2017-12-25T13:41:28.513Z,13.80
2017-12-25T13:43:55.960Z,13.90
2017-12-25T13:46:23.436Z,14.00
2017-12-25T13:48:50.894Z,13.90
2017-12-25T13:51:18.347Z,13.90
2017-12-25T13:53:45.802Z,13.80
2017-12-25T13:56:13.266Z,14.00
2017-12-25T13:58:40.708Z,14.00
2017-12-25T14:01:08.162Z,13.90
2017-12-25T14:03:35.649Z,14.00
2017-12-25T14:06:03.074Z,14.10
2017-12-25T14:08:30.525Z,14.00
2017-12-25T14:10:57.991Z,13.90
2017-12-25T14:13:25.446Z,13.90
2017-12-25T14:15:52.929Z,13.90
2017-12-25T14:18:20.390Z,14.00
2017-12-25T14:20:47.842Z,13.80
2017-12-25T14:23:15.293Z,13.80
2017-12-25T14:25:42.749Z,13.80
2017-12-25T14:28:10.201Z,13.70
2017-12-25T14:30:37.654Z,13.70
2017-12-25T14:33:05.105Z,13.70
2017-12-25T14:35:32.569Z,13.70
2017-12-25T14:38:00.029Z,13.60
2017-12-25T14:40:27.503Z,13.50
2017-12-25T14:42:54.930Z,13.60
2017-12-25T14:45:22.382Z,13.60
2017-12-25T14:47:49.850Z,13.50
2017-12-25T14:50:17.315Z,13.50
2017-12-25T14:52:44.773Z,13.50
2017-12-25T14:55:12.230Z,13.50
2017-12-25T14:57:39.689Z,13.60
2017-12-25T15:00:07.149Z,13.60
2017-12-25T15:02:34.613Z,13.40
2017-12-25T15:05:02.067Z,13.30
2017-12-25T15:07:29.538Z,13.30
2017-12-25T15:09:56.986Z,13.30
2017-12-25T15:12:24.441Z,13.30
2017-12-25T15:14:51.890Z,13.20
2017-12-25T15:17:19.364Z,13.20
2017-12-25T15:19:48.326Z,13.50
2017-12-25T15:22:15.777Z,13.50
2017-12-25T15:24:43.246Z,13.50
2017-12-25T15:27:11.469Z,13.40
2017-12-25T15:29:38.919Z,13.40
2017-12-25T15:32:06.378Z,13.50
2017-12-25T15:34:33.845Z,13.50
2017-12-25T15:37:02.058Z,13.50
2017-12-25T15:39:29.542Z,13.50
2017-12-25T15:41:56.998Z,13.70
2017-12-25T15:44:24.511Z,13.60
2017-12-25T15:46:51.946Z,13.70
2017-12-25T15:49:19.403Z,13.70
2017-12-25T15:51:47.636Z,13.80
2017-12-25T15:54:15.098Z,13.80
2017-12-25T15:56:42.558Z,13.90
2017-12-25T15:59:10.006Z,13.80
2017-12-25T16:01:37.462Z,13.90
2017-12-25T16:04:05.047Z,13.80
2017-12-25T16:06:32.700Z,13.70
2017-12-25T16:09:01.043Z,13.40
2017-12-25T16:11:28.502Z,13.40
2017-12-25T16:13:55.953Z,13.30
2017-12-25T16:16:23.406Z,13.20
2017-12-25T16:18:50.857Z,13.10
2017-12-25T16:21:18.321Z,13.00
2017-12-25T16:23:45.820Z,12.90
2017-12-25T16:26:14.078Z,13.00
2017-12-25T16:28:41.512Z,13.00
2017-12-25T16:31:08.978Z,13.20
2017-12-25T16:33:36.426Z,13.20
2017-12-25T16:36:03.890Z,13.20
2017-12-25T16:38:31.355Z,13.30
2017-12-25T16:40:58.825Z,13.40
2017-12-25T16:43:26.273Z,13.50
2017-12-25T16:45:53.749Z,13.40
2017-12-25T16:48:21.217Z,13.30
2017-12-25T16:50:48.688Z,13.30
2017-12-25T16:53:16.901Z,13.10
2017-12-25T16:55:44.362Z,13.10
2017-12-25T16:58:11.806Z,13.00
2017-12-25T17:00:39.290Z,12.90
2017-12-25T17:03:06.734Z,12.90
2017-12-25T17:05:34.193Z,12.90
2017-12-25T17:08:01.677Z,13.00
2017-12-25T17:10:29.142Z,13.20
2017-12-25T17:12:56.597Z,13.30
2017-12-25T17:15:25.603Z,13.10
2017-12-25T17:17:53.098Z,13.10
2017-12-25T17:20:20.550Z,13.00
2017-12-25T17:22:48.034Z,13.00
2017-12-25T17:25:15.494Z,13.10
2017-12-25T17:27:42.958Z,13.20
2017-12-25T17:30:10.418Z,13.10
2017-12-25T17:32:37.887Z,12.90
2017-12-25T17:35:06.137Z,13.00
2017-12-25T17:37:33.593Z,13.20
2017-12-25T17:40:01.066Z,13.20
2017-12-25T17:42:28.537Z,13.10
2017-12-25T17:44:55.993Z,13.00
2017-12-25T17:47:24.218Z,13.20
2017-12-25T17:49:51.656Z,13.20
2017-12-25T17:52:19.879Z,13.30
2017-12-25T17:54:47.329Z,13.30
2017-12-25T17:57:14.793Z,13.10
2017-12-25T17:59:42.277Z,13.20
2017-12-25T18:02:09.727Z,13.10
2017-12-25T18:04:37.169Z,12.90
2017-12-25T18:07:04.621Z,13.10
2017-12-25T18:09:32.104Z,13.20
2017-12-25T18:11:59.550Z,13.30
2017-12-25T18:14:27.002Z,13.10
2017-12-25T18:16:54.446Z,13.00
2017-12-25T18:19:22.005Z,13.00
2017-12-25T18:21:49.437Z,12.90
2017-12-25T18:24:17.676Z,13.00
2017-12-25T18:26:46.650Z,13.10
2017-12-25T18:29:14.113Z,13.20
2017-12-25T18:31:41.557Z,13.20
2017-12-25T18:34:09.097Z,13.00
2017-12-25T18:36:36.589Z,12.90
2017-12-25T18:39:04.059Z,12.90
2017-12-25T18:41:31.528Z,12.90
2017-12-25T18:43:58.981Z,12.90
2017-12-25T18:46:27.040Z,12.90
2017-12-25T18:48:54.491Z,12.90
2017-12-25T18:51:21.949Z,12.80
2017-12-25T18:53:50.030Z,12.80
2017-12-25T18:56:17.502Z,12.80
2017-12-25T18:58:45.726Z,12.80
2017-12-25T19:01:13.346Z,12.70
2017-12-25T19:03:40.900Z,12.90
2017-12-25T19:06:09.135Z,12.90
2017-12-25T19:08:36.594Z,12.90
2017-12-25T19:11:04.076Z,12.90
2017-12-25T19:13:31.548Z,12.90
2017-12-25T19:15:59.150Z,12.80
2017-12-25T19:18:26.610Z,12.80
2017-12-25T19:20:54.935Z,12.80
2017-12-25T19:23:22.429Z,12.80
2017-12-25T19:25:49.895Z,12.90
2017-12-25T19:28:17.372Z,13.00
2017-12-25T19:30:44.884Z,13.00
2017-12-25T19:33:13.098Z,12.90
2017-12-25T19:35:40.577Z,12.90
2017-12-25T19:38:08.051Z,13.00
2017-12-25T19:40:35.531Z,13.00
2017-12-25T19:43:02.982Z,12.90
2017-12-25T19:45:31.204Z,13.10
2017-12-25T19:47:59.242Z,13.00
2017-12-25T19:50:27.484Z,13.00
2017-12-25T19:52:54.962Z,12.90
2017-12-25T19:55:23.197Z,13.00
2017-12-25T19:57:50.667Z,13.00
2017-12-25T20:00:18.119Z,12.90
2017-12-25T20:02:45.574Z,13.00
2017-12-25T20:05:13.030Z,13.00
2017-12-25T20:07:40.509Z,13.10
2017-12-25T20:10:08.081Z,13.10
2017-12-25T20:12:35.817Z,12.90
2017-12-25T20:15:03.279Z,12.90
2017-12-25T20:17:31.498Z,12.70
2017-12-25T20:19:58.951Z,12.70
2017-12-25T20:22:27.194Z,12.70
2017-12-25T20:24:54.645Z,12.70
2017-12-25T20:27:22.135Z,12.80
2017-12-25T20:29:49.593Z,12.90
2017-12-25T20:32:17.828Z,12.90
2017-12-25T20:34:45.398Z,13.00
2017-12-25T20:37:12.870Z,13.10
2017-12-25T20:39:40.589Z,13.00
2017-12-25T20:42:08.052Z,13.00
2017-12-25T20:44:35.506Z,13.10
2017-12-25T20:47:03.237Z,12.90
2017-12-25T20:49:30.689Z,13.00
2017-12-25T20:51:58.982Z,13.00
2017-12-25T20:54:26.460Z,13.00
2017-12-25T20:56:53.923Z,13.00
2017-12-25T20:59:21.390Z,13.10
2017-12-25T21:01:48.845Z,13.10
2017-12-25T21:04:16.291Z,13.10
2017-12-25T21:06:43.745Z,13.10
2017-12-25T21:09:11.205Z,13.00
2017-12-25T21:11:38.739Z,13.00
2017-12-25T21:14:06.948Z,12.70
2017-12-25T21:16:34.401Z,12.60
2017-12-25T21:19:01.869Z,12.60
2017-12-25T21:21:29.317Z,12.60
2017-12-25T21:23:56.790Z,12.70
2017-12-25T21:26:24.237Z,12.80
2017-12-25T21:28:51.713Z,12.80
2017-12-25T21:31:19.162Z,12.70
2017-12-25T21:33:46.637Z,12.60
2017-12-25T21:36:14.101Z,12.60
2017-12-25T21:38:41.586Z,12.60
2017-12-25T21:41:09.042Z,12.70
2017-12-25T21:43:36.496Z,12.80
2017-12-25T21:46:04.724Z,13.00
2017-12-25T21:48:32.183Z,13.00
2017-12-25T21:50:59.649Z,13.00
2017-12-25T21:53:27.102Z,12.90
2017-12-25T21:55:55.323Z,12.90
2017-12-25T21:58:22.775Z,12.90
2017-12-25T22:00:51.004Z,13.00
2017-12-25T22:03:18.453Z,13.00
2017-12-25T22:05:45.905Z,13.00
2017-12-25T22:08:13.362Z,12.80
2017-12-25T22:10:40.809Z,12.80
2017-12-25T22:13:08.274Z,12.80
2017-12-25T22:15:35.725Z,12.80
2017-12-25T22:18:03.178Z,12.90
2017-12-25T22:20:30.687Z,12.70
2017-12-25T22:22:58.179Z,12.70
2017-12-25T22:25:25.626Z,12.70
2017-12-25T22:27:53.100Z,12.80
2017-12-25T22:30:20.547Z,12.70
2017-12-25T22:32:48.788Z,12.60
2017-12-25T22:35:16.246Z,12.60
2017-12-25T22:37:43.722Z,12.80
2017-12-25T22:40:11.933Z,12.80
2017-12-25T22:42:39.396Z,12.80
2017-12-25T22:45:06.854Z,12.80
2017-12-25T22:47:34.310Z,12.80
2017-12-25T22:50:01.858Z,12.70
2017-12-25T22:52:29.325Z,12.60
2017-12-25T22:54:56.785Z,12.50
2017-12-25T22:57:25.326Z,12.60
2017-12-25T22:59:53.541Z,12.60
2017-12-25T23:02:21.010Z,12.60
2017-12-25T23:04:48.533Z,12.60
2017-12-25T23:07:15.982Z,12.50
2017-12-25T23:09:44.193Z,12.40
2017-12-25T23:12:11.746Z,12.40
2017-12-25T23:14:39.203Z,12.40
2017-12-25T23:17:06.668Z,12.50
2017-12-25T23:19:34.121Z,12.50
2017-12-25T23:22:01.568Z,12.60
2017-12-25T23:24:29.033Z,12.50
2017-12-25T23:26:56.489Z,12.30
2017-12-25T23:29:23.947Z,12.30
2017-12-25T23:31:51.565Z,12.20
2017-12-25T23:34:19.785Z,11.90
2017-12-25T23:36:47.418Z,11.90
2017-12-25T23:39:15.050Z,11.80
2017-12-25T23:41:44.000Z,11.90
2017-12-25T23:44:11.842Z,11.90
2017-12-25T23:46:39.290Z,11.80
2017-12-25T23:49:07.517Z,12.20
2017-12-25T23:51:34.969Z,12.20
2017-12-25T23:54:02.421Z,12.20
2017-12-25T23:56:29.918Z,12.20
2017-12-25T23:58:57.405Z,12.30
